Time;durP1;ratioP1;P1;durP2;ratioP2;P2;SDS_P1;SDS_P2;PMS_P1;PMS_P2;Temp;Humidity;BMP_temperature;BMP_pressure;BME280_temperature;BME280_humidity;BME280_pressure;Samples;Min_cycle;Max_cycle;Signal;HPM_P1;HPM_P2
2022/04/25 00:02:20;;;;;;;22.02;13.85;;;10.60;99.90;;;;;;5082541;28;20108;-62
2022/04/25 00:04:45;;;;;;;23.42;13.93;;;10.50;99.90;;;;;;5081574;28;20071;-63
2022/04/25 00:07:11;;;;;;;21.77;12.88;;;10.50;99.90;;;;;;5082181;28;20119;-64
2022/04/25 00:09:36;;;;;;;23.85;13.80;;;10.50;99.90;;;;;;5082383;28;20070;-66
2022/04/25 00:12:02;;;;;;;23.45;13.57;;;10.50;99.90;;;;;;5079987;28;20050;-63
2022/04/25 00:14:28;;;;;;;23.95;13.27;;;10.50;99.90;;;;;;5080084;28;20025;-63
2022/04/25 00:16:56;;;;;;;50.92;32.25;;;10.50;99.90;;;;;;5080964;28;20031;-62
2022/04/25 00:19:23;;;;;;;44.63;31.30;;;10.50;99.90;;;;;;5081174;28;20055;-63
2022/04/25 00:21:49;;;;;;;28.15;16.42;;;10.50;99.90;;;;;;5080725;28;20308;-63
2022/04/25 00:24:14;;;;;;;24.10;14.07;;;10.50;99.90;;;;;;5080402;28;20066;-63
2022/04/25 00:26:40;;;;;;;26.23;15.98;;;10.50;99.90;;;;;;5079355;28;20033;-62
2022/04/25 00:29:06;;;;;;;30.95;18.80;;;10.40;99.90;;;;;;5077039;28;20048;-62
2022/04/25 00:31:31;;;;;;;23.95;13.85;;;10.50;99.90;;;;;;5076787;28;20017;-70
2022/04/25 00:33:57;;;;;;;33.00;20.50;;;10.50;99.90;;;;;;5076287;28;20615;-61
2022/04/25 00:36:22;;;;;;;31.88;17.92;;;10.50;99.90;;;;;;5076276;28;20031;-63
2022/04/25 00:38:48;;;;;;;25.33;14.35;;;10.50;99.90;;;;;;5076226;28;20360;-63
2022/04/25 00:41:14;;;;;;;23.80;14.05;;;10.50;99.90;;;;;;5076025;28;20024;-65
2022/04/25 00:43:39;;;;;;;23.27;14.38;;;10.40;99.90;;;;;;5077214;28;20453;-64
2022/04/25 00:46:05;;;;;;;21.63;13.38;;;10.30;99.90;;;;;;5080261;28;20029;-63
2022/04/25 00:48:31;;;;;;;23.33;14.40;;;10.20;99.90;;;;;;5080077;28;20111;-63
2022/04/25 00:50:57;;;;;;;27.08;14.85;;;10.10;99.90;;;;;;5079635;28;20067;-63
2022/04/25 00:53:22;;;;;;;23.55;13.63;;;10.20;99.90;;;;;;5079242;28;20036;-66
2022/04/25 00:55:48;;;;;;;24.75;13.80;;;10.10;99.90;;;;;;5079838;28;20034;-62
2022/04/25 00:58:15;;;;;;;24.52;14.80;;;10.20;99.90;;;;;;5079730;28;20032;-61
2022/04/25 01:00:41;;;;;;;24.88;14.57;;;10.10;99.90;;;;;;5078324;28;20119;-63
2022/04/25 01:03:07;;;;;;;22.27;14.40;;;10.10;99.90;;;;;;5079733;28;20043;-64
2022/04/25 01:05:33;;;;;;;23.70;14.52;;;10.00;99.90;;;;;;5078611;28;20027;-66
2022/04/25 01:07:59;;;;;;;22.88;14.35;;;10.00;99.90;;;;;;5079777;28;20477;-62
2022/04/25 01:10:25;;;;;;;24.55;14.60;;;10.00;99.90;;;;;;5078095;28;20628;-63
2022/04/25 01:12:50;;;;;;;28.42;15.10;;;10.00;99.90;;;;;;5079739;28;20031;-62
2022/04/25 01:15:16;;;;;;;28.35;15.35;;;;;;;;;;5078174;28;20059;-63
2022/04/25 01:17:42;;;;;;;26.55;15.30;;;9.90;99.90;;;;;;5078055;28;20025;-63
2022/04/25 01:20:09;;;;;;;30.73;16.58;;;9.70;99.90;;;;;;5079410;28;20021;-64
2022/04/25 01:27:15;;;;;;;25.92;16.55;;;9.70;99.90;;;;;;5079387;28;20078;-62
2022/04/25 01:28:31;;;;;;;24.10;15.07;;;9.70;99.90;;;;;;5083628;28;20031;-64
2022/04/25 01:30:56;;;;;;;25.55;16.20;;;9.70;99.90;;;;;;5080111;28;20080;-64
2022/04/25 01:33:22;;;;;;;25.05;14.43;;;9.60;99.90;;;;;;5077891;28;20039;-63
2022/04/25 01:35:47;;;;;;;25.17;15.27;;;9.60;99.90;;;;;;5078324;28;20557;-64
2022/04/25 01:38:13;;;;;;;25.58;15.50;;;9.50;99.90;;;;;;5079099;28;20028;-64
2022/04/25 01:40:39;;;;;;;25.10;15.10;;;9.40;99.90;;;;;;5079798;28;20106;-64
2022/04/25 01:43:04;;;;;;;25.13;15.18;;;9.40;99.90;;;;;;5080263;28;20027;-63
2022/04/25 01:45:30;;;;;;;25.05;16.75;;;9.40;99.90;;;;;;5079263;28;20540;-63
2022/04/25 01:47:55;;;;;;;26.35;16.70;;;9.40;99.90;;;;;;5079437;28;20020;-63
2022/04/25 01:50:21;;;;;;;25.05;15.05;;;9.40;99.90;;;;;;5079999;28;20473;-63
2022/04/25 01:52:46;;;;;;;25.02;16.95;;;9.40;99.90;;;;;;5081142;28;20039;-63
2022/04/25 01:55:12;;;;;;;24.02;15.48;;;9.40;99.90;;;;;;5081248;28;20070;-62
2022/04/25 01:57:38;;;;;;;24.45;16.05;;;9.40;99.90;;;;;;5082401;28;20023;-64
2022/04/25 02:00:05;;;;;;;24.90;15.70;;;9.40;99.90;;;;;;5080174;28;20024;-64
2022/04/25 02:02:30;;;;;;;25.02;15.07;;;9.40;99.90;;;;;;5077909;28;20068;-63
2022/04/25 02:04:56;;;;;;;25.42;16.35;;;9.40;99.90;;;;;;5078356;28;20071;-63
2022/04/25 02:07:22;;;;;;;27.77;16.58;;;9.30;99.90;;;;;;5078489;28;20033;-64
2022/04/25 02:09:47;;;;;;;25.67;16.30;;;9.30;99.90;;;;;;5077648;28;20306;-64
2022/04/25 02:12:13;;;;;;;26.45;17.17;;;9.20;99.90;;;;;;5077484;28;20111;-62
2022/04/25 02:14:41;;;;;;;26.15;16.00;;;9.10;99.90;;;;;;5077930;28;20024;-63
2022/04/25 02:17:07;;;;;;;;;;;9.10;99.90;;;;;;5078380;28;20539;-63
2022/04/25 02:19:38;;;;;;;33.53;17.42;;;9.00;99.90;;;;;;5078929;28;19905;-62
2022/04/25 02:22:06;;;;;;;27.92;17.60;;;9.00;99.90;;;;;;5077402;28;20032;-63
2022/04/25 02:24:32;;;;;;;27.58;17.45;;;9.00;99.90;;;;;;5079177;28;20029;-62
2022/04/25 02:26:57;;;;;;;28.25;17.63;;;8.90;99.90;;;;;;5079288;28;20033;-62
2022/04/25 02:29:23;;;;;;;29.30;17.05;;;8.90;99.90;;;;;;5077694;28;20025;-62
2022/04/25 02:31:48;;;;;;;27.50;18.25;;;9.00;99.90;;;;;;5078509;28;20025;-63
2022/04/25 02:34:14;;;;;;;26.73;16.83;;;9.00;99.90;;;;;;5078637;28;20028;-63
2022/04/25 02:36:40;;;;;;;29.25;18.83;;;9.00;99.90;;;;;;5077245;28;20028;-62
2022/04/25 02:39:05;;;;;;;26.95;17.77;;;9.00;99.90;;;;;;5078932;28;20033;-62
2022/04/25 02:41:31;;;;;;;27.75;17.17;;;9.00;99.90;;;;;;5079509;28;20051;-63
2022/04/25 02:43:57;;;;;;;27.63;17.98;;;9.00;99.90;;;;;;5078759;28;20028;-63
2022/04/25 02:46:22;;;;;;;29.30;17.50;;;9.10;99.90;;;;;;5079025;28;20025;-63
2022/04/25 02:48:48;;;;;;;25.77;17.52;;;9.10;99.90;;;;;;5079236;28;20036;-63
2022/04/25 02:51:16;;;;;;;28.17;18.17;;;9.20;99.90;;;;;;5078333;28;20028;-64
2022/04/25 02:53:42;;;;;;;76.60;50.33;;;9.20;99.90;;;;;;5078538;28;20028;-66
2022/04/25 02:56:09;;;;;;;80.85;55.03;;;9.20;99.90;;;;;;5078103;28;20033;-64
2022/04/25 02:58:38;;;;;;;29.45;20.33;;;9.30;99.90;;;;;;5076434;28;20073;-63
2022/04/25 03:01:04;;;;;;;32.75;21.17;;;9.20;99.90;;;;;;5077287;28;20322;-62
2022/04/25 03:03:32;;;;;;;33.17;21.10;;;9.20;99.90;;;;;;5079359;28;20051;-64
2022/04/25 03:05:58;;;;;;;38.35;26.83;;;9.10;99.90;;;;;;5077689;28;20024;-63
2022/04/25 03:08:25;;;;;;;33.50;22.73;;;9.10;99.90;;;;;;5078589;28;20167;-63
2022/04/25 03:10:52;;;;;;;30.85;19.27;;;9.10;99.90;;;;;;5077865;28;20040;-63
2022/04/25 03:13:19;;;;;;;32.30;21.58;;;9.00;99.90;;;;;;5079675;28;20024;-63
2022/04/25 03:15:47;;;;;;;31.33;18.30;;;9.00;99.90;;;;;;5081455;28;20036;-64
2022/04/25 03:18:16;;;;;;;33.00;21.80;;;8.90;99.90;;;;;;5083864;28;20086;-65
2022/04/25 03:20:43;;;;;;;31.58;17.85;;;8.90;99.90;;;;;;5082498;28;20032;-64
2022/04/25 03:23:09;;;;;;;26.63;17.80;;;8.90;99.90;;;;;;5081151;28;20074;-63
2022/04/25 03:25:36;;;;;;;27.13;18.15;;;8.90;99.90;;;;;;5080382;28;20084;-65
2022/04/25 03:28:02;;;;;;;27.77;16.92;;;8.90;99.90;;;;;;5081805;28;20023;-63
2022/04/25 03:30:28;;;;;;;29.95;19.58;;;8.90;99.90;;;;;;5083334;28;20016;-64
2022/04/25 03:32:54;;;;;;;28.63;18.02;;;9.00;99.90;;;;;;5082769;28;20080;-64
2022/04/25 03:35:22;;;;;;;30.02;17.75;;;9.10;99.90;;;;;;5082049;28;20476;-64
2022/04/25 03:37:49;;;;;;;27.20;17.38;;;9.20;99.90;;;;;;5082963;28;20524;-63
2022/04/25 03:40:15;;;;;;;31.80;19.52;;;9.20;99.90;;;;;;5082744;28;20059;-64
2022/04/25 03:42:44;;;;;;;33.78;20.05;;;9.20;99.90;;;;;;5082438;28;20025;-64
2022/04/25 03:45:11;;;;;;;25.60;17.55;;;9.30;99.90;;;;;;5083031;28;20086;-65
2022/04/25 03:47:38;;;;;;;26.60;17.40;;;9.30;99.90;;;;;;5082720;28;20017;-64
2022/04/25 03:50:08;;;;;;;29.25;17.55;;;9.30;99.90;;;;;;5082444;28;20067;-62
2022/04/25 03:52:38;;;;;;;45.17;29.95;;;9.30;99.90;;;;;;5081121;28;20036;-62
2022/04/25 03:57:49;;;;;;;25.02;18.27;;;9.30;99.90;;;;;;5081808;28;20032;-64
2022/04/25 04:00:15;;;;;;;26.02;17.25;;;9.40;99.90;;;;;;5082061;28;20024;-63
2022/04/25 04:02:40;;;;;;;27.15;17.40;;;9.40;99.90;;;;;;5081717;28;20115;-65
2022/04/25 04:05:07;;;;;;;25.58;17.17;;;9.30;99.90;;;;;;5080358;28;20020;-63
2022/04/25 04:07:32;;;;;;;29.80;18.50;;;9.20;99.90;;;;;;5081622;28;20028;-64
2022/04/25 04:09:59;;;;;;;27.70;17.75;;;9.20;99.90;;;;;;5081840;28;20035;-64
2022/04/25 04:12:29;;;;;;;28.65;19.98;;;9.10;99.90;;;;;;5080615;28;20024;-64
2022/04/25 04:14:55;;;;;;;30.05;19.40;;;9.10;99.90;;;;;;5081386;28;20350;-63
2022/04/25 04:17:21;;;;;;;28.77;19.27;;;9.10;99.90;;;;;;5080964;28;20130;-64
2022/04/25 04:19:47;;;;;;;26.55;17.55;;;9.00;99.90;;;;;;5082724;28;20029;-64
2022/04/25 04:22:12;;;;;;;30.20;18.27;;;9.00;99.90;;;;;;5080850;28;20028;-64
2022/04/25 04:24:38;;;;;;;29.08;19.15;;;8.90;99.90;;;;;;5081892;28;20029;-62
2022/04/25 04:27:05;;;;;;;26.33;17.02;;;8.90;99.90;;;;;;5081685;28;20107;-65
2022/04/25 04:29:32;;;;;;;26.30;17.50;;;9.00;99.90;;;;;;5082335;28;20017;-63
2022/04/25 04:32:05;;;;;;;26.02;16.85;;;9.00;99.90;;;;;;5080530;28;20040;-65
2022/04/25 04:34:31;;;;;;;26.25;17.15;;;9.00;99.90;;;;;;5082632;28;20031;-64
2022/04/25 04:36:57;;;;;;;29.90;17.95;;;9.10;99.90;;;;;;5081617;28;20025;-63
2022/04/25 04:39:23;;;;;;;26.25;17.55;;;9.20;99.90;;;;;;5082034;28;20075;-66
2022/04/25 04:41:48;;;;;;;26.85;18.30;;;9.30;99.90;;;;;;5082387;28;20113;-64
2022/04/25 04:44:14;;;;;;;24.05;16.67;;;9.30;99.90;;;;;;5081354;28;20027;-63
2022/04/25 04:46:41;;;;;;;25.60;15.52;;;9.30;99.90;;;;;;5082066;28;20392;-63
2022/04/25 04:49:06;;;;;;;25.23;16.63;;;9.20;99.90;;;;;;5082432;28;20108;-62
2022/04/25 04:51:32;;;;;;;29.85;18.00;;;9.30;99.90;;;;;;5076775;28;20472;-66
2022/04/25 04:54:01;;;;;;;43.97;27.13;;;9.30;99.90;;;;;;5072914;28;20044;-66
2022/04/25 04:56:30;;;;;;;27.00;18.00;;;9.50;99.90;;;;;;5074500;28;20157;-63
2022/04/25 04:58:56;;;;;;;;;;;9.70;99.90;;;;;;5074633;28;20400;-62
2022/04/25 05:01:22;;;;;;;26.50;15.10;;;9.80;99.90;;;;;;5072117;28;19908;-62
2022/04/25 05:03:48;;;;;;;23.55;16.10;;;9.80;99.90;;;;;;5073540;28;20024;-62
2022/04/25 05:06:14;;;;;;;24.40;15.80;;;9.80;99.90;;;;;;5071862;28;20122;-60
2022/04/25 05:08:40;;;;;;;25.95;14.63;;;9.80;99.90;;;;;;5073211;28;20112;-61
2022/04/25 05:11:08;;;;;;;98.45;63.75;;;9.90;99.90;;;;;;5073349;28;20037;-60
2022/04/25 05:13:34;;;;;;;51.72;33.50;;;9.90;99.90;;;;;;5072105;28;20033;-62
2022/04/25 05:15:59;;;;;;;25.50;16.38;;;9.90;99.90;;;;;;5076060;28;20114;-63
2022/04/25 05:18:25;;;;;;;22.60;14.30;;;10.00;99.90;;;;;;5081036;28;20487;-63
2022/04/25 05:20:51;;;;;;;27.50;16.15;;;10.00;99.90;;;;;;5078143;28;20047;-63
2022/04/25 05:23:16;;;;;;;22.40;13.88;;;10.10;99.90;;;;;;5080264;28;20104;-60
2022/04/25 05:25:42;;;;;;;22.95;14.10;;;10.20;99.90;;;;;;5080162;28;20039;-65
2022/04/25 05:28:08;;;;;;;23.08;13.80;;;10.20;99.90;;;;;;5080716;28;20078;-63
2022/04/25 05:30:35;;;;;;;22.77;13.70;;;10.30;99.90;;;;;;5080787;28;20192;-63
2022/04/25 05:33:04;;;;;;;20.65;13.07;;;10.40;99.90;;;;;;5080505;28;20112;-64
2022/04/25 05:35:32;;;;;;;25.35;16.35;;;10.50;99.90;;;;;;5080285;28;20024;-63
2022/04/25 05:37:58;;;;;;;19.65;12.65;;;10.60;99.90;;;;;;5080236;28;20024;-64
2022/04/25 05:40:27;;;;;;;20.08;12.15;;;10.70;99.90;;;;;;5080051;28;20119;-62
2022/04/25 05:42:57;;;;;;;19.95;12.57;;;10.60;99.90;;;;;;5078140;28;20174;-65
2022/04/25 05:45:24;;;;;;;24.73;15.40;;;10.70;99.90;;;;;;5077684;28;20025;-60
2022/04/25 05:47:51;;;;;;;22.95;13.35;;;10.60;99.90;;;;;;5078980;28;20429;-63
2022/04/25 05:53:04;;;;;;;21.38;13.35;;;10.60;99.90;;;;;;5085987;22;20160;-65
2022/04/25 05:55:30;;;;;;;23.08;13.70;;;10.50;99.90;;;;;;5070212;28;20027;-64
2022/04/25 05:57:57;;;;;;;22.38;13.85;;;10.40;99.90;;;;;;5071313;28;20029;-65
2022/04/25 06:00:24;;;;;;;24.50;14.75;;;10.30;99.90;;;;;;5062089;28;20021;-64
2022/04/25 06:02:50;;;;;;;22.65;14.27;;;10.30;99.90;;;;;;5064516;28;20091;-63
2022/04/25 06:05:16;;;;;;;25.40;14.45;;;10.30;99.90;;;;;;5051946;28;20104;-62
2022/04/25 06:07:44;;;;;;;22.02;13.95;;;10.20;99.90;;;;;;5041228;28;20087;-64
2022/04/25 06:10:15;;;;;;;22.20;14.07;;;10.20;99.90;;;;;;5031895;28;20053;-64
2022/04/25 06:12:43;;;;;;;23.40;14.50;;;10.00;99.90;;;;;;5030598;28;20026;-62
2022/04/25 06:15:09;;;;;;;23.20;14.13;;;10.00;99.90;;;;;;5032331;28;20104;-64
2022/04/25 06:17:38;;;;;;;24.30;13.13;;;10.00;99.90;;;;;;5050972;28;20048;-63
2022/04/25 06:20:06;;;;;;;25.13;15.35;;;9.90;99.90;;;;;;5051116;28;20025;-63
2022/04/25 06:22:32;;;;;;;26.33;14.73;;;9.90;99.90;;;;;;5050611;28;20029;-63
2022/04/25 06:24:57;;;;;;;21.10;13.57;;;9.90;99.90;;;;;;5050605;28;20024;-65
2022/04/25 06:27:23;;;;;;;23.63;14.65;;;9.90;99.90;;;;;;5050844;28;20374;-64
2022/04/25 06:29:49;;;;;;;22.67;13.50;;;10.00;99.90;;;;;;5050537;28;20013;-63
2022/04/25 06:32:14;;;;;;;24.27;15.50;;;9.90;99.90;;;;;;5051305;28;20052;-65
2022/04/25 06:34:41;;;;;;;21.90;13.55;;;9.90;99.90;;;;;;5032253;28;20030;-63
2022/04/25 06:37:07;;;;;;;24.10;15.00;;;9.90;99.90;;;;;;5032209;28;20036;-66
2022/04/25 06:39:33;;;;;;;24.65;14.68;;;9.90;99.90;;;;;;5030899;28;20080;-65
2022/04/25 06:42:00;;;;;;;25.50;15.73;;;10.00;99.90;;;;;;5034465;28;20026;-63
2022/04/25 06:44:27;;;;;;;22.63;14.23;;;10.10;99.90;;;;;;5031957;28;20067;-61
2022/04/25 06:46:52;;;;;;;23.58;15.25;;;10.10;99.90;;;;;;5032112;28;20033;-65
2022/04/25 06:49:23;;;;;;;23.35;14.32;;;10.10;99.90;;;;;;5031721;28;20459;-65
2022/04/25 06:51:50;;;;;;;23.08;14.93;;;10.10;99.90;;;;;;5034363;28;20025;-63
2022/04/25 06:54:17;;;;;;;22.45;14.05;;;10.10;99.90;;;;;;5034781;28;20032;-63
2022/04/25 06:56:42;;;;;;;25.20;15.52;;;10.30;99.90;;;;;;5034594;28;20022;-62
2022/04/25 06:59:08;;;;;;;26.30;15.43;;;10.30;99.90;;;;;;5039330;28;20496;-64
2022/04/25 07:01:35;;;;;;;23.10;14.55;;;10.40;99.90;;;;;;5054521;28;20078;-64
2022/04/25 07:04:02;;;;;;;23.92;14.00;;;10.30;99.90;;;;;;5055743;28;20031;-64
2022/04/25 07:06:27;;;;;;;23.50;14.27;;;10.20;99.90;;;;;;5055782;28;20021;-62
2022/04/25 07:08:53;;;;;;;25.17;14.48;;;10.20;99.90;;;;;;5055623;28;20103;-62
2022/04/25 07:11:19;;;;;;;22.38;14.82;;;10.30;99.90;;;;;;5055523;28;20086;-64
2022/04/25 07:13:45;;;;;;;23.73;14.27;;;10.40;99.90;;;;;;5054447;28;20112;-65
2022/04/25 07:16:15;;;;;;;22.80;12.98;;;10.50;99.90;;;;;;5054311;28;20029;-63
2022/04/25 07:18:41;;;;;;;24.98;13.45;;;10.70;99.90;;;;;;5054380;28;20124;-63
2022/04/25 07:29:20;;;;;;;22.02;12.68;;;11.30;99.90;;;;;;5055462;28;20139;-64
2022/04/25 07:31:47;;;;;;;21.63;12.63;;;11.50;99.90;;;;;;5055275;28;20029;-64
2022/04/25 07:34:12;;;;;;;19.75;12.63;;;11.70;99.90;;;;;;5042175;28;20056;-63
2022/04/25 07:36:38;;;;;;;19.67;12.23;;;11.70;99.90;;;;;;5035028;28;20029;-64
2022/04/25 07:39:04;;;;;;;19.83;12.65;;;11.80;99.90;;;;;;5034668;28;20029;-63
2022/04/25 07:41:29;;;;;;;19.60;12.05;;;11.80;99.90;;;;;;5033570;28;20029;-62
2022/04/25 07:43:56;;;;;;;22.80;12.23;;;11.70;99.90;;;;;;5034829;28;20071;-62
2022/04/25 07:46:25;;;;;;;19.85;12.13;;;11.50;99.90;;;;;;5034411;28;20048;-64
2022/04/25 07:48:51;;;;;;;;;;;11.40;99.90;;;;;;5034791;28;20028;-63
2022/04/25 07:51:17;;;;;;;19.98;11.68;;;11.40;99.90;;;;;;5033235;28;20353;-63
2022/04/25 07:53:42;;;;;;;22.05;12.65;;;11.50;99.90;;;;;;5033592;28;20105;-63
2022/04/25 07:56:08;;;;;;;21.63;12.88;;;11.50;99.90;;;;;;5034613;28;20033;-64
2022/04/25 07:58:34;;;;;;;21.40;12.52;;;11.50;99.90;;;;;;5034705;28;20485;-62
2022/04/25 08:01:01;;;;;;;20.15;12.27;;;11.40;99.90;;;;;;5034836;28;20026;-64
2022/04/25 08:03:27;;;;;;;21.42;12.98;;;11.40;99.90;;;;;;5032831;28;20105;-60
2022/04/25 08:05:53;;;;;;;21.80;12.88;;;11.30;99.90;;;;;;5034807;28;20501;-60
2022/04/25 08:08:18;;;;;;;23.52;14.10;;;11.20;99.90;;;;;;5034971;28;20021;-61
2022/04/25 08:10:44;;;;;;;21.73;13.25;;;11.20;99.90;;;;;;5034603;28;20104;-62
2022/04/25 08:18:38;;;;;;;24.13;13.65;;;11.60;99.90;;;;;;5034490;28;20029;-63
2022/04/25 08:21:04;;;;;;;22.08;13.77;;;11.50;99.90;;;;;;5032297;28;20025;-62
2022/04/25 08:23:30;;;;;;;22.88;12.77;;;11.60;99.90;;;;;;5033009;28;20033;-66
2022/04/25 08:25:56;;;;;;;20.70;13.43;;;11.50;99.90;;;;;;5033955;28;20125;-65
2022/04/25 08:28:23;;;;;;;22.45;12.88;;;11.40;99.90;;;;;;5032823;28;20159;-65
2022/04/25 08:30:50;;;;;;;21.52;12.52;;;11.30;99.90;;;;;;5032499;28;20026;-66
2022/04/25 08:33:15;;;;;;;24.60;13.82;;;11.60;99.90;;;;;;5033967;28;20033;-65
2022/04/25 08:35:41;;;;;;;21.10;12.98;;;12.00;99.90;;;;;;5034102;28;20021;-64
2022/04/25 08:38:06;;;;;;;22.52;12.63;;;12.20;99.90;;;;;;5033762;28;20075;-63
2022/04/25 08:40:33;;;;;;;20.92;12.93;;;12.50;99.90;;;;;;5032464;28;20022;-63
2022/04/25 08:43:01;;;;;;;23.33;13.27;;;12.60;99.90;;;;;;5042500;28;20059;-65
2022/04/25 08:45:28;;;;;;;21.67;13.68;;;12.80;99.90;;;;;;5044611;28;20473;-63
2022/04/25 08:47:55;;;;;;;22.50;13.75;;;12.70;99.90;;;;;;5044311;28;20029;-64
2022/04/25 08:50:22;;;;;;;21.35;12.98;;;12.60;99.90;;;;;;5052528;28;20100;-64
2022/04/25 08:52:48;;;;;;;23.20;13.70;;;12.50;99.90;;;;;;5051823;28;20040;-64
2022/04/25 08:55:15;;;;;;;22.50;14.00;;;12.30;99.90;;;;;;5053706;28;20060;-64
2022/04/25 08:57:42;;;;;;;23.45;15.02;;;12.00;99.90;;;;;;5053837;28;20036;-63
2022/04/25 09:00:08;;;;;;;24.20;14.45;;;12.30;99.90;;;;;;5045285;28;20029;-64
2022/04/25 09:02:38;;;;;;;23.52;15.88;;;12.50;99.90;;;;;;5033330;28;20022;-65
2022/04/25 09:05:05;;;;;;;24.30;13.73;;;12.50;99.90;;;;;;5033151;28;20370;-59
2022/04/25 09:07:31;;;;;;;23.52;13.77;;;12.50;99.90;;;;;;5033440;28;20025;-57
2022/04/25 09:09:57;;;;;;;26.75;12.95;;;12.40;99.90;;;;;;5031771;28;20033;-58
2022/04/25 09:12:23;;;;;;;20.88;12.70;;;12.20;99.90;;;;;;5032983;28;20112;-57
2022/04/25 09:14:49;;;;;;;23.63;14.15;;;12.00;99.90;;;;;;5032929;28;20036;-61
2022/04/25 09:17:15;;;;;;;23.90;13.40;;;11.80;99.90;;;;;;5033152;28;20083;-55
2022/04/25 09:19:41;;;;;;;22.73;13.13;;;12.00;99.90;;;;;;5032804;28;20428;-60
2022/04/25 09:22:09;;;;;;;24.60;12.90;;;12.50;99.90;;;;;;5031433;28;20116;-61
2022/04/25 09:24:43;;;;;;;20.80;12.95;;;12.90;99.90;;;;;;5032838;28;20022;-59
2022/04/25 09:27:18;;;;;;;27.00;14.25;;;13.10;99.90;;;;;;5032123;28;20120;-61
2022/04/25 09:29:46;;;;;;;21.48;12.90;;;13.10;99.90;;;;;;5036601;28;20489;-60
2022/04/25 09:32:13;;;;;;;;;;;13.00;99.90;;;;;;5053718;28;20112;-60
2022/04/25 09:38:04;;;;;;;21.92;13.75;;;13.60;99.90;;;;;;5052125;28;20036;-61
2022/04/25 09:40:33;;;;;;;23.90;13.70;;;13.40;99.90;;;;;;4973741;28;20029;-62
2022/04/25 09:43:07;;;;;;;25.20;14.43;;;13.10;99.90;;;;;;5043268;28;20033;-59
2022/04/25 09:45:34;;;;;;;22.42;13.02;;;13.00;99.90;;;;;;5051845;28;20060;-59
2022/04/25 09:48:00;;;;;;;21.17;13.23;;;13.20;99.90;;;;;;5052986;28;20039;-61
2022/04/25 09:50:28;;;;;;;22.33;13.55;;;13.00;99.90;;;;;;5052644;28;20560;-58
2022/04/25 09:52:55;;;;;;;;;;;13.20;99.90;;;;;;5051278;28;20033;-61
2022/04/25 09:55:23;;;;;;;22.75;13.70;;;13.30;99.90;;;;;;5052411;28;20361;-62
2022/04/25 09:57:50;;;;;;;22.38;14.90;;;13.40;99.90;;;;;;5052712;28;20020;-64
2022/04/25 10:00:25;;;;;;;21.80;13.88;;;13.30;99.90;;;;;;5051483;28;20094;-61
2022/04/25 10:02:51;;;;;;;25.77;14.73;;;13.30;99.90;;;;;;5052693;28;20021;-63
2022/04/25 10:05:17;;;;;;;23.15;13.95;;;13.10;99.90;;;;;;5052979;28;20036;-65
2022/04/25 10:07:43;;;;;;;25.30;14.15;;;13.20;99.90;;;;;;5051295;28;20120;-62
2022/04/25 10:10:10;;;;;;;23.23;14.07;;;13.30;99.90;;;;;;5052524;28;20021;-65
2022/04/25 10:12:37;;;;;;;21.17;13.93;;;13.40;99.90;;;;;;5051043;28;20029;-63
2022/04/25 10:15:07;;;;;;;24.10;15.40;;;13.50;99.90;;;;;;5052642;28;20040;-63
2022/04/25 10:17:38;;;;;;;21.27;14.32;;;13.70;99.90;;;;;;5052401;28;20055;-63
2022/04/25 10:20:05;;;;;;;22.65;15.73;;;13.30;99.90;;;;;;5051122;28;20032;-62
2022/04/25 10:22:31;;;;;;;25.90;15.95;;;13.40;99.90;;;;;;5050748;28;20401;-62
2022/04/25 10:24:56;;;;;;;22.55;14.95;;;13.30;99.90;;;;;;5051987;28;20024;-64
2022/04/25 10:27:28;;;;;;;26.60;14.63;;;13.20;99.90;;;;;;5051656;28;20100;-63
2022/04/25 10:30:00;;;;;;;25.25;15.07;;;13.00;99.90;;;;;;5052069;28;20043;-64
2022/04/25 10:32:25;;;;;;;27.75;16.02;;;12.90;99.90;;;;;;5052166;28;20025;-63
2022/04/25 10:35:12;;;;;;;24.45;15.68;;;12.80;99.90;;;;;;5051663;28;20036;-63
2022/04/25 10:37:40;;;;;;;23.17;14.60;;;12.80;99.90;;;;;;5052031;28;20024;-63
2022/04/25 10:40:06;;;;;;;25.58;16.10;;;12.90;99.90;;;;;;5052071;28;20036;-62
2022/04/25 10:45:53;;;;;;;26.63;16.77;;;13.00;99.90;;;;;;5052258;28;20032;-63
2022/04/25 10:48:19;;;;;;;22.92;15.13;;;13.10;99.90;;;;;;5052274;28;20107;-64
2022/04/25 10:51:10;;;;;;;24.10;15.30;;;13.40;99.90;;;;;;5052222;28;20480;-65
2022/04/25 10:54:02;;;;;;;23.92;14.93;;;13.70;99.90;;;;;;5052078;28;20036;-63
2022/04/25 10:56:29;;;;;;;25.67;15.18;;;13.70;99.90;;;;;;5051649;28;20064;-64
2022/04/25 10:59:26;;;;;;;25.23;15.63;;;13.70;99.90;;;;;;5051343;28;20024;-63
2022/04/25 11:01:52;;;;;;;26.13;16.40;;;13.40;99.90;;;;;;5051366;28;20088;-64
2022/04/25 11:04:20;;;;;;;27.42;16.73;;;13.30;99.90;;;;;;5050506;28;20370;-62
2022/04/25 11:07:07;;;;;;;27.10;16.80;;;13.30;99.90;;;;;;5050875;28;20025;-65
2022/04/25 11:09:39;;;;;;;27.10;16.23;;;13.30;99.90;;;;;;5040751;28;20037;-64
2022/04/25 11:12:05;;;;;;;27.10;17.05;;;13.60;99.90;;;;;;5051628;28;20032;-63
2022/04/25 11:14:31;;;;;;;25.30;16.40;;;13.80;99.90;;;;;;5050572;28;20032;-62
2022/04/25 11:17:14;;;;;;;24.73;16.50;;;13.80;99.90;;;;;;5050414;28;20029;-62
2022/04/25 11:19:59;;;;;;;26.90;16.55;;;13.80;99.90;;;;;;5052323;28;20028;-63
2022/04/25 11:22:47;;;;;;;27.35;17.13;;;13.70;99.90;;;;;;5052066;28;20458;-64
2022/04/25 11:25:37;;;;;;;;;;;13.90;99.90;;;;;;5051299;28;20050;-62
2022/04/25 11:28:04;;;;;;;24.80;16.85;;;14.00;99.90;;;;;;5043645;28;19940;-64
2022/04/25 11:30:30;;;;;;;24.55;15.80;;;13.70;99.90;;;;;;5052038;28;20029;-64
2022/04/25 11:33:13;;;;;;;27.70;17.05;;;13.80;99.90;;;;;;5052525;28;20083;-64
2022/04/25 11:35:42;;;;;;;25.88;16.30;;;14.00;99.90;;;;;;5051608;28;20413;-64
2022/04/25 11:38:07;;;;;;;26.85;17.10;;;14.00;99.90;;;;;;5052938;28;20063;-63
2022/04/25 11:40:34;;;;;;;24.45;16.38;;;14.40;99.90;;;;;;5055886;28;20385;-63
2022/04/25 11:43:00;;;;;;;23.88;17.17;;;14.80;99.90;;;;;;5055682;28;20025;-62
2022/04/25 11:45:30;;;;;;;24.73;17.95;;;15.10;99.90;;;;;;5056030;28;20021;-62
2022/04/25 11:47:55;;;;;;;25.50;17.17;;;15.10;99.90;;;;;;5048679;28;20057;-65
2022/04/25 11:50:21;;;;;;;26.85;17.50;;;14.90;99.90;;;;;;5035302;28;20057;-65
2022/04/25 11:52:48;;;;;;;26.45;17.90;;;14.90;99.90;;;;;;5036283;28;20037;-64
2022/04/25 11:55:16;;;;;;;25.92;17.45;;;14.90;99.90;;;;;;5035297;28;20101;-65
2022/04/25 11:57:43;;;;;;;25.63;17.23;;;14.70;99.90;;;;;;5035793;28;20074;-65
2022/04/25 12:00:20;;;;;;;27.35;18.10;;;14.60;99.90;;;;;;4684329;28;10000321;-64
2022/04/25 12:02:46;;;;;;;27.15;18.27;;;14.40;99.90;;;;;;5048296;28;20539;-66
2022/04/25 12:05:13;;;;;;;26.23;17.80;;;14.30;99.90;;;;;;5043675;28;20021;-64
2022/04/25 12:15:34;;;;;;;26.67;16.85;;;14.30;99.90;;;;;;5046556;28;20481;-64
2022/04/25 12:15:58;;;;;;;27.08;16.60;;;13.80;99.90;;;;;;5032404;28;20033;-64
2022/04/25 12:18:28;;;;;;;25.85;17.20;;;13.20;99.90;;;;;;5044308;28;20095;-64
2022/04/25 12:21:04;;;;;;;26.27;17.15;;;13.20;99.90;;;;;;5050367;28;20515;-60
2022/04/25 12:23:34;;;;;;;25.67;17.88;;;13.40;99.90;;;;;;5037883;28;20037;-63
2022/04/25 12:26:03;;;;;;;25.63;17.35;;;13.70;99.90;;;;;;5031856;28;20025;-64
2022/04/25 12:28:37;;;;;;;25.20;16.98;;;13.90;99.90;;;;;;5031836;28;20014;-65
2022/04/25 12:31:09;;;;;;;26.17;17.40;;;14.20;99.90;;;;;;5031554;28;20091;-65
2022/04/25 12:33:35;;;;;;;32.40;22.33;;;14.30;99.90;;;;;;5031312;28;20032;-64
2022/04/25 12:36:19;;;;;;;24.30;17.40;;;14.40;99.90;;;;;;5043128;28;20028;-64
2022/04/25 12:39:08;;;;;;;27.42;20.20;;;14.60;99.90;;;;;;5031275;28;20025;-67
2022/04/25 12:41:35;;;;;;;;;;;14.80;99.90;;;;;;5048376;28;20572;-64
2022/04/25 12:44:09;;;;;;;23.98;16.58;;;14.50;99.90;;;;;;5047894;28;20319;-67
2022/04/25 12:46:36;;;;;;;25.95;16.55;;;14.50;99.90;;;;;;5046779;28;20108;-65
2022/04/25 12:49:08;;;;;;;23.67;16.05;;;14.40;99.90;;;;;;5036759;28;20043;-65
2022/04/25 12:51:38;;;;;;;23.05;15.95;;;14.30;99.90;;;;;;5047163;28;20097;-65
2022/04/25 12:54:25;;;;;;;24.15;15.57;;;13.90;99.90;;;;;;5042834;28;20025;-65
2022/04/25 12:56:55;;;;;;;21.65;15.13;;;13.60;99.90;;;;;;5037167;28;20114;-65
2022/04/25 12:59:26;;;;;;;22.58;15.30;;;13.30;99.90;;;;;;5032914;28;20433;-65
2022/04/25 13:02:07;;;;;;;23.20;16.15;;;13.30;99.90;;;;;;5051435;28;20024;-64
2022/04/25 13:04:48;;;;;;;23.10;15.45;;;13.30;99.90;;;;;;5053053;28;20021;-65
2022/04/25 13:07:14;;;;;;;24.92;15.93;;;13.20;99.90;;;;;;5053870;28;20104;-65
2022/04/25 13:09:39;;;;;;;22.42;14.88;;;13.20;99.90;;;;;;5041262;28;20057;-64
2022/04/25 13:12:15;;;;;;;22.70;14.48;;;13.20;99.90;;;;;;5033725;28;20505;-59